Time;durP1;ratioP1;P1;durP2;ratioP2;P2;SDS_P1;SDS_P2;PMS_P1;PMS_P2;Temp;Humidity;BMP_temperature;BMP_pressure;BME280_temperature;BME280_humidity;BME280_pressure;Samples;Min_cycle;Max_cycle;Signal;HPM_P1;HPM_P2
2024/01/25 00:01:39;;;;;;;15.07;4.10;;;;;;;7.61;100.00;101454.63;5081823;28;20023;-75
2024/01/25 00:04:05;;;;;;;8.55;3.15;;;;;;;7.65;100.00;101442.69;5081755;28;20038;-74
2024/01/25 00:06:30;;;;;;;9.48;2.95;;;;;;;7.71;100.00;101434.91;5081691;28;20031;-74
2024/01/25 00:08:56;;;;;;;11.65;2.92;;;;;;;7.77;100.00;101428.16;5080901;28;20042;-74
2024/01/25 00:11:22;;;;;;;27.88;5.28;;;;;;;7.81;100.00;101434.94;5080930;28;20027;-75
2024/01/25 00:13:47;;;;;;;9.98;2.47;;;;;;;7.84;100.00;101429.28;5081543;28;20485;-74
2024/01/25 00:16:13;;;;;;;21.50;5.32;;;;;;;7.88;100.00;101430.69;5081171;28;20054;-74
2024/01/25 00:18:39;;;;;;;12.07;3.55;;;;;;;7.94;100.00;101431.97;5081001;28;20028;-74
2024/01/25 00:21:05;;;;;;;15.13;3.63;;;;;;;7.93;100.00;101417.72;5081278;28;20092;-75
2024/01/25 00:23:30;;;;;;;11.82;4.35;;;;;;;7.94;100.00;101418.59;5081355;28;20502;-75
2024/01/25 00:25:58;;;;;;;16.90;3.40;;;;;;;7.95;100.00;101414.91;5081314;28;20032;-75
2024/01/25 00:28:25;;;;;;;13.73;3.25;;;;;;;7.95;100.00;101401.50;5081837;28;20027;-74
2024/01/25 00:30:50;;;;;;;6.78;2.88;;;;;;;7.96;100.00;101407.72;5097952;28;20027;-74
2024/01/25 00:33:16;;;;;;;11.45;3.92;;;;;;;7.97;100.00;101404.91;5081702;28;20123;-75
2024/01/25 00:35:42;;;;;;;8.00;2.85;;;;;;;7.98;100.00;101389.69;5081068;28;20616;-74
2024/01/25 00:38:08;;;;;;;6.22;3.50;;;;;;;8.03;100.00;101388.25;5080796;28;20076;-75
2024/01/25 00:40:34;;;;;;;9.98;3.03;;;;;;;8.08;100.00;101385.16;5080802;28;20467;-74
2024/01/25 00:43:00;;;;;;;9.07;2.55;;;;;;;8.09;100.00;101381.47;5080751;28;20031;-74
2024/01/25 00:45:26;;;;;;;8.63;2.70;;;;;;;8.11;100.00;101374.16;5097248;28;20036;-75
2024/01/25 00:47:55;;;;;;;4.05;1.77;;;;;;;8.12;100.00;101360.63;5097754;28;20045;-75
2024/01/25 00:50:23;;;;;;;3.25;1.95;;;;;;;8.13;100.00;101345.38;5080636;28;20028;-75
2024/01/25 00:52:50;;;;;;;9.93;2.50;;;;;;;8.12;100.00;101349.03;5081100;28;20028;-74
2024/01/25 00:55:16;;;;;;;7.53;2.65;;;;;;;8.11;100.00;101344.69;5080859;28;20111;-74
2024/01/25 00:57:42;;;;;;;1.48;1.38;;;;;;;8.12;100.00;101338.31;5080553;28;20040;-74
2024/01/25 01:00:09;;;;;;;7.13;2.45;;;;;;;8.12;100.00;101323.13;5080257;28;20028;-74
2024/01/25 01:02:43;;;;;;;1.70;1.50;;;;;;;8.15;100.00;101317.47;5063889;28;20042;-74
2024/01/25 01:05:10;;;;;;;5.93;2.08;;;;;;;8.15;100.00;101317.47;5097195;28;20084;-74
2024/01/25 01:07:36;;;;;;;2.53;1.10;;;;;;;8.18;100.00;101299.38;5081044;28;20089;-74
2024/01/25 01:10:04;;;;;;;4.85;2.30;;;;;;;8.19;100.00;101303.78;5080201;28;20035;-74
2024/01/25 01:12:30;;;;;;;4.35;1.52;;;;;;;8.21;100.00;101307.16;5080120;28;20040;-74
2024/01/25 01:14:56;;;;;;;1.50;1.20;;;;;;;8.20;100.00;101302.78;5096900;28;20039;-74
2024/01/25 01:17:21;;;;;;;3.45;1.33;;;;;;;8.20;100.00;101295.56;5079900;28;20375;-75
2024/01/25 01:19:47;;;;;;;1.40;1.02;;;;;;;8.21;100.00;101283.88;5079831;28;20122;-75
2024/01/25 01:22:13;;;;;;;1.27;1.17;;;;;;;8.25;100.00;101284.41;5096643;28;20031;-74
2024/01/25 01:24:39;;;;;;;1.77;1.33;;;;;;;8.27;100.00;101277.94;5113772;28;20042;-75
2024/01/25 01:27:04;;;;;;;3.20;1.70;;;;;;;8.26;100.00;101270.88;5080456;28;20038;-77
2024/01/25 01:29:30;;;;;;;0.75;0.75;;;;;;;8.26;100.00;101256.66;5079861;28;20410;-75
2024/01/25 01:31:56;;;;;;;0.70;0.70;;;;;;;8.30;100.00;101264.22;5079952;28;20043;-75
2024/01/25 01:34:21;;;;;;;0.50;0.50;;;;;;;8.32;100.00;101261.41;5079835;28;20036;-75
2024/01/25 01:36:47;;;;;;;0.70;0.70;;;;;;;8.31;100.00;101235.63;5079989;28;20024;-75
2024/01/25 01:39:13;;;;;;;3.17;1.10;;;;;;;8.32;100.00;101237.28;5079620;28;20148;-75
2024/01/25 01:41:38;;;;;;;2.40;1.27;;;;;;;8.35;100.00;101239.69;5079424;28;20456;-75
2024/01/25 01:44:04;;;;;;;0.70;0.70;;;;;;;8.38;100.00;101232.16;5079687;28;20046;-74
2024/01/25 01:46:36;;;;;;;0.40;0.40;;;;;;;8.45;100.00;101243.19;5079524;28;20498;-75
2024/01/25 01:49:03;;;;;;;0.50;0.50;;;;;;;8.46;100.00;101234.13;5113291;28;20486;-75
2024/01/25 01:51:31;;;;;;;0.40;0.40;;;;;;;8.46;100.00;101227.94;5080174;28;20122;-75
2024/01/25 01:53:57;;;;;;;0.60;0.60;;;;;;;8.50;100.00;101221.28;5095963;28;20031;-75
2024/01/25 01:56:24;;;;;;;0.40;0.40;;;;;;;8.55;100.00;101216.31;5096980;28;20034;-75
2024/01/25 01:58:51;;;;;;;0.40;0.40;;;;;;;8.59;100.00;101209.66;5079543;28;20027;-75
2024/01/25 02:01:18;;;;;;;0.50;0.50;;;;;;;8.62;100.00;101201.31;5079414;28;20032;-75
2024/01/25 02:03:43;;;;;;;0.47;0.47;;;;;;;8.62;100.00;101179.84;5079546;28;20043;-75
2024/01/25 02:06:09;;;;;;;0.50;0.50;;;;;;;8.60;100.00;101176.50;5079361;28;20031;-75
2024/01/25 02:08:35;;;;;;;0.40;0.40;;;;;;;8.63;100.00;101160.13;5079346;28;20027;-75
2024/01/25 02:11:01;;;;;;;0.50;0.50;;;;;;;8.75;100.00;101158.88;5079386;28;20106;-75
2024/01/25 02:13:27;;;;;;;0.40;0.40;;;;;;;8.87;100.00;101148.75;5078870;28;20024;-75
2024/01/25 02:15:53;;;;;;;0.40;0.40;;;;;;;8.85;100.00;101139.19;5079273;28;20372;-75
2024/01/25 02:18:18;;;;;;;0.40;0.40;;;;;;;8.77;100.00;101140.78;5079231;28;20100;-75
2024/01/25 02:20:44;;;;;;;0.40;0.40;;;;;;;8.75;100.00;101136.59;5078682;28;20520;-75
2024/01/25 02:23:10;;;;;;;0.50;0.50;;;;;;;8.77;100.00;101118.50;5079032;28;20039;-75
2024/01/25 02:25:35;;;;;;;0.50;0.50;;;;;;;8.75;100.00;101117.81;5079249;28;20168;-75
2024/01/25 02:28:01;;;;;;;0.40;0.40;;;;;;;8.68;100.00;101114.94;5079038;28;20035;-75
2024/01/25 02:30:27;;;;;;;0.50;0.50;;;;;;;8.60;100.00;101109.50;5079275;28;20122;-75
2024/01/25 02:32:53;;;;;;;0.45;0.45;;;;;;;8.62;100.00;101112.00;5078326;28;20038;-75
2024/01/25 02:35:18;;;;;;;0.47;0.47;;;;;;;8.59;100.00;101127.41;5079036;28;20035;-75
2024/01/25 02:37:44;;;;;;;0.40;0.40;;;;;;;8.57;100.00;101128.53;5095557;28;20043;-75
2024/01/25 02:40:10;;;;;;;0.40;0.40;;;;;;;8.54;100.00;101123.50;5078851;28;20036;-75
2024/01/25 02:42:36;;;;;;;0.40;0.40;;;;;;;8.56;100.00;101126.88;5079052;28;20483;-75
2024/01/25 02:45:01;;;;;;;0.40;0.40;;;;;;;8.60;100.00;101109.50;5078756;28;20032;-75
2024/01/25 02:47:28;;;;;;;0.40;0.40;;;;;;;8.68;100.00;101108.69;5095186;28;20035;-75
2024/01/25 02:49:54;;;;;;;0.40;0.40;;;;;;;8.73;100.00;101093.84;5078852;28;20036;-75
2024/01/25 02:52:19;;;;;;;0.40;0.40;;;;;;;8.74;100.00;101095.53;5078892;28;20035;-75
2024/01/25 02:54:45;;;;;;;0.40;0.40;;;;;;;8.82;100.00;101078.66;5078648;28;20035;-75
2024/01/25 02:57:11;;;;;;;0.40;0.40;;;;;;;8.79;100.00;101077.13;5078807;28;20035;-75
2024/01/25 02:59:36;;;;;;;0.40;0.40;;;;;;;8.73;100.00;101076.91;5079116;28;20035;-75
2024/01/25 03:02:02;;;;;;;0.40;0.40;;;;;;;8.80;100.00;101072.59;5078720;28;20446;-75
2024/01/25 03:04:28;;;;;;;0.40;0.40;;;;;;;8.91;100.00;101079.56;5112383;28;20032;-75
2024/01/25 03:06:53;;;;;;;0.40;0.40;;;;;;;9.02;100.00;101072.09;5078702;28;20131;-75
2024/01/25 03:09:21;;;;;;;0.40;0.40;;;;;;;9.13;100.00;101072.81;5078783;28;20058;-75
2024/01/25 03:11:47;;;;;;;0.40;0.40;;;;;;;9.19;100.00;101072.19;5095358;28;20126;-75
2024/01/25 03:14:12;;;;;;;0.40;0.40;;;;;;;9.24;100.00;101068.03;5078569;28;20508;-75
2024/01/25 03:16:38;;;;;;;0.40;0.40;;;;;;;9.32;100.00;101069.91;5078652;28;20235;-75
2024/01/25 03:19:04;;;;;;;0.50;0.50;;;;;;;9.37;100.00;101066.78;5094889;28;20047;-75
2024/01/25 03:21:29;;;;;;;0.40;0.40;;;;;;;9.43;100.00;101050.84;5078683;28;20070;-75
2024/01/25 03:23:55;;;;;;;0.40;0.40;;;;;;;9.45;100.00;101051.53;5078543;28;20056;-75
2024/01/25 03:26:21;;;;;;;0.40;0.40;;;;;;;9.46;100.00;101041.63;5095115;28;20517;-75
2024/01/25 03:28:47;;;;;;;0.47;0.47;;;;;;;9.44;100.00;101049.00;5078549;28;20096;-75
2024/01/25 03:31:12;;;;;;;0.40;0.40;;;;;;;9.49;100.00;101033.25;5078385;28;20042;-75
2024/01/25 03:33:38;;;;;;;0.40;0.40;;;;;;;9.49;100.00;101033.25;5078277;28;20471;-75
2024/01/25 03:36:05;;;;;;;0.40;0.40;;;;;;;9.54;100.00;101022.88;5078391;28;20054;-75
2024/01/25 03:38:31;;;;;;;0.50;0.50;;;;;;;9.59;100.00;101023.22;5078627;28;20035;-75
2024/01/25 03:40:58;;;;;;;0.40;0.40;;;;;;;9.64;100.00;101020.06;5111790;28;20071;-75
2024/01/25 03:43:27;;;;;;;0.40;0.40;;;;;;;9.67;100.00;101015.19;5095047;28;20077;-75
2024/01/25 03:45:53;;;;;;;0.40;0.40;;;;;;;9.74;100.00;101014.53;5080651;28;20066;-75
2024/01/25 03:48:19;;;;;;;0.40;0.40;;;;;;;9.77;100.00;101016.91;5081963;28;20085;-75
2024/01/25 03:50:44;;;;;;;0.40;0.40;;;;;;;9.78;100.00;101013.22;5081721;28;20028;-75
2024/01/25 03:53:10;;;;;;;0.40;0.40;;;;;;;9.85;100.00;101015.06;5081981;28;20114;-75
2024/01/25 03:55:36;;;;;;;0.50;0.50;;;;;;;9.88;100.00;101011.22;5081779;28;20118;-75
2024/01/25 03:58:01;;;;;;;0.73;0.73;;;;;;;9.86;100.00;100994.41;5081772;28;20059;-75
2024/01/25 04:00:27;;;;;;;0.57;0.57;;;;;;;9.89;100.00;101004.81;5081544;28;20024;-75
2024/01/25 04:02:52;;;;;;;0.55;0.55;;;;;;;9.91;100.00;101000.97;5082017;28;20471;-76
2024/01/25 04:05:18;;;;;;;0.40;0.40;;;;;;;9.91;100.00;101000.97;5081529;28;20395;-75
2024/01/25 04:07:44;;;;;;;0.60;0.60;;;;;;;9.90;100.00;100993.09;5098441;28;20448;-75
2024/01/25 04:10:10;;;;;;;0.40;0.40;;;;;;;9.89;100.00;100992.22;5097914;28;20032;-75
2024/01/25 04:12:36;;;;;;;0.40;0.40;;;;;;;9.88;100.00;100993.25;5115070;28;20093;-75
2024/01/25 04:15:03;;;;;;;0.40;0.40;;;;;;;9.87;100.00;100988.91;5081426;28;20460;-75
2024/01/25 04:17:29;;;;;;;0.40;0.40;;;;;;;9.88;100.00;100992.41;5096878;28;20502;-75
2024/01/25 04:19:55;;;;;;;0.40;0.40;;;;;;;9.85;100.00;100990.91;5098687;28;20055;-75
2024/01/25 04:22:20;;;;;;;0.30;0.30;;;;;;;9.89;100.00;100986.84;5081784;28;20498;-75
2024/01/25 04:24:48;;;;;;;0.40;0.40;;;;;;;9.89;100.00;100975.28;5097562;28;20402;-75
2024/01/25 04:27:14;;;;;;;0.40;0.40;;;;;;;9.90;100.00;100966.25;5081420;28;20032;-75
2024/01/25 04:29:41;;;;;;;0.40;0.40;;;;;;;9.89;100.00;100956.47;5081324;28;20038;-75
2024/01/25 04:32:07;;;;;;;0.40;0.40;;;;;;;9.88;100.00;100954.81;5114767;28;20032;-75
2024/01/25 04:34:33;;;;;;;0.40;0.40;;;;;;;9.91;100.00;100962.53;5080897;28;20034;-75
2024/01/25 04:36:59;;;;;;;0.40;0.40;;;;;;;9.91;100.00;100957.16;5063937;28;20032;-75
2024/01/25 04:39:24;;;;;;;0.50;0.50;;;;;;;9.91;100.00;100955.31;5081025;28;20023;-75
2024/01/25 04:41:50;;;;;;;0.40;0.40;;;;;;;9.94;100.00;100951.44;5115514;28;20505;-75
2024/01/25 04:44:16;;;;;;;0.38;0.38;;;;;;;9.96;100.00;100949.44;5080775;28;20046;-75
2024/01/25 04:46:42;;;;;;;0.43;0.43;;;;;;;9.97;100.00;100956.47;5080607;28;20031;-75
2024/01/25 04:49:07;;;;;;;0.40;0.40;;;;;;;9.98;100.00;100955.50;5097253;28;20030;-75
2024/01/25 04:51:33;;;;;;;0.47;0.47;;;;;;;9.98;100.00;100958.19;5080785;28;20031;-75
2024/01/25 04:53:59;;;;;;;0.40;0.40;;;;;;;9.99;100.00;100954.47;5080678;28;20070;-74
2024/01/25 04:56:24;;;;;;;0.50;0.50;;;;;;;9.99;100.00;100951.78;5080094;28;20035;-75
2024/01/25 04:58:50;;;;;;;0.43;0.43;;;;;;;9.99;100.00;100942.91;5080849;28;20031;-74
2024/01/25 05:01:17;;;;;;;0.40;0.40;;;;;;;10.01;100.00;100936.34;5097278;28;20088;-75
2024/01/25 05:03:43;;;;;;;0.47;0.47;;;;;;;10.04;100.00;100930.63;5080642;28;20027;-75
2024/01/25 05:06:08;;;;;;;0.40;0.40;;;;;;;10.04;100.00;100927.13;5080570;28;20027;-75
2024/01/25 05:08:34;;;;;;;0.50;0.50;;;;;;;10.01;100.00;100920.22;5080295;28;20031;-75
2024/01/25 05:11:00;;;;;;;0.50;0.50;;;;;;;10.04;100.00;100919.91;5080241;28;20035;-74
2024/01/25 05:13:25;;;;;;;0.40;0.40;;;;;;;10.04;100.00;100914.53;5114133;28;20398;-74
2024/01/25 05:15:51;;;;;;;0.40;0.40;;;;;;;10.02;100.00;100895.03;5080420;28;20066;-74
2024/01/25 05:18:17;;;;;;;0.40;0.40;;;;;;;10.01;100.00;100895.22;5080249;28;20038;-74
2024/01/25 05:20:42;;;;;;;0.40;0.40;;;;;;;9.98;100.00;100901.78;5079998;28;20386;-74
2024/01/25 05:23:35;;;;;;;0.40;0.40;;;;;;;9.98;100.00;100898.25;5113887;28;20035;-75
2024/01/25 05:26:06;;;;;;;0.50;0.50;;;;;;;10.00;100.00;100904.28;5082261;28;20047;-74
2024/01/25 05:28:31;;;;;;;0.40;0.40;;;;;;;10.01;100.00;100892.53;5080071;28;20031;-75
2024/01/25 05:30:57;;;;;;;0.43;0.43;;;;;;;10.03;100.00;100896.72;5080134;28;20130;-75
2024/01/25 05:33:23;;;;;;;0.40;0.40;;;;;;;10.05;100.00;100899.22;5080049;28;20119;-74
2024/01/25 05:35:48;;;;;;;0.47;0.47;;;;;;;10.06;100.00;100884.81;5079856;28;20032;-75
2024/01/25 05:38:14;;;;;;;0.40;0.40;;;;;;;10.09;100.00;100888.00;5113497;28;20020;-75
2024/01/25 05:40:41;;;;;;;0.40;0.40;;;;;;;10.10;100.00;100886.97;5079541;28;20032;-75
2024/01/25 05:43:07;;;;;;;0.50;0.50;;;;;;;10.12;100.00;100895.72;5079812;28;20058;-74
2024/01/25 05:45:33;;;;;;;0.30;0.30;;;;;;;10.15;100.00;100891.84;5079749;28;20471;-75
2024/01/25 05:48:00;;;;;;;0.40;0.40;;;;;;;10.17;100.00;100891.69;5112879;28;20028;-74
2024/01/25 05:50:25;;;;;;;0.38;0.38;;;;;;;10.17;100.00;100880.94;5079504;28;20361;-74
2024/01/25 05:52:51;;;;;;;0.50;0.50;;;;;;;10.15;100.00;100878.41;5080529;28;20065;-74
2024/01/25 05:55:17;;;;;;;0.40;0.40;;;;;;;10.16;100.00;100874.72;5079213;28;20387;-75
2024/01/25 05:57:46;;;;;;;0.40;0.40;;;;;;;10.13;100.00;100870.53;5079595;28;20035;-74
2024/01/25 06:00:13;;;;;;;0.40;0.40;;;;;;;10.13;100.00;100857.09;5113235;28;20463;-75
2024/01/25 06:02:39;;;;;;;0.38;0.38;;;;;;;10.15;100.00;100869.50;5096513;28;20032;-75
2024/01/25 06:05:05;;;;;;;0.40;0.40;;;;;;;10.17;100.00;100864.81;5079452;28;20036;-74
2024/01/25 06:07:31;;;;;;;0.40;0.40;;;;;;;10.16;100.00;100863.97;5077985;28;20027;-75
2024/01/25 06:09:57;;;;;;;0.30;0.30;;;;;;;10.16;100.00;100865.81;5078442;28;20050;-75
2024/01/25 06:12:22;;;;;;;0.35;0.35;;;;;;;10.15;100.00;100862.28;5079306;28;20380;-75
2024/01/25 06:14:48;;;;;;;0.40;0.40;;;;;;;10.13;100.00;100851.72;5079237;28;20134;-75
2024/01/25 06:17:14;;;;;;;0.40;0.40;;;;;;;10.19;100.00;100841.28;5079160;28;20421;-74
2024/01/25 06:19:39;;;;;;;0.50;0.50;;;;;;;10.19;100.00;100844.81;5079239;28;20039;-74
2024/01/25 06:22:06;;;;;;;0.50;0.50;;;;;;;10.16;100.00;100839.81;5079080;28;20067;-75
2024/01/25 06:24:31;;;;;;;0.40;0.40;;;;;;;10.16;100.00;100833.56;5079363;28;20233;-74
2024/01/25 06:26:57;;;;;;;0.40;0.40;;;;;;;10.15;100.00;100827.34;5079161;28;20131;-74
2024/01/25 06:29:23;;;;;;;0.40;0.40;;;;;;;10.18;100.00;100832.38;5078836;28;20028;-75
2024/01/25 06:31:48;;;;;;;0.40;0.40;;;;;;;10.19;100.00;100830.53;5078823;28;20036;-75
2024/01/25 06:34:14;;;;;;;0.30;0.30;;;;;;;10.19;100.00;100830.53;5079134;28;20039;-74
2024/01/25 06:36:42;;;;;;;0.40;0.40;;;;;;;10.20;100.00;100826.84;5078857;28;20032;-75
2024/01/25 06:39:08;;;;;;;0.40;0.40;;;;;;;10.21;100.00;100823.97;5079234;28;20051;-74
2024/01/25 06:41:34;;;;;;;0.40;0.40;;;;;;;10.22;100.00;100824.84;5079117;28;20036;-74
2024/01/25 06:44:00;;;;;;;0.40;0.40;;;;;;;10.25;100.00;100829.88;5078989;28;20035;-74
2024/01/25 06:46:26;;;;;;;0.40;0.40;;;;;;;10.27;100.00;100825.16;5112070;28;20032;-75
2024/01/25 06:48:51;;;;;;;0.40;0.40;;;;;;;10.28;100.00;100825.00;5062214;28;20031;-75
2024/01/25 06:51:17;;;;;;;0.45;0.45;;;;;;;10.32;100.00;100831.72;5079288;28;20122;-74
2024/01/25 06:53:43;;;;;;;0.40;0.40;;;;;;;10.34;100.00;100828.84;5078788;28;20494;-75
2024/01/25 06:56:09;;;;;;;0.43;0.43;;;;;;;10.37;100.00;100838.41;5095260;28;20032;-75
2024/01/25 06:58:34;;;;;;;0.40;0.40;;;;;;;10.36;100.00;100828.69;5078949;28;20032;-74
2024/01/25 07:01:00;;;;;;;0.40;0.40;;;;;;;10.36;100.00;100816.06;5078294;28;20032;-76
2024/01/25 07:03:26;;;;;;;0.50;0.50;;;;;;;10.38;100.00;100818.59;5095336;28;20114;-75
2024/01/25 07:05:52;;;;;;;0.40;0.40;;;;;;;10.37;100.00;100820.44;5078852;28;20028;-75
2024/01/25 07:08:18;;;;;;;0.30;0.30;;;;;;;10.39;100.00;100821.09;5078756;28;20467;-75
2024/01/25 07:10:44;;;;;;;0.40;0.40;;;;;;;10.42;100.00;100817.22;5078643;28;20039;-75
2024/01/25 07:13:10;;;;;;;0.40;0.40;;;;;;;10.41;100.00;100813.72;5095454;28;20114;-75
2024/01/25 07:15:36;;;;;;;0.50;0.50;;;;;;;10.42;100.00;100815.38;5078647;28;20062;-75
2024/01/25 07:18:04;;;;;;;0.40;0.40;;;;;;;10.43;100.00;100816.25;5078547;28;20544;-74
2024/01/25 07:20:29;;;;;;;0.50;0.50;;;;;;;10.45;100.00;100819.56;5081758;28;20032;-75
2024/01/25 07:22:56;;;;;;;0.40;0.40;;;;;;;10.44;100.00;100807.97;5082342;28;20032;-74
2024/01/25 07:25:22;;;;;;;0.40;0.40;;;;;;;10.45;100.00;100807.00;5082277;28;20068;-75
2024/01/25 07:27:49;;;;;;;0.50;0.50;;;;;;;10.47;100.00;100809.50;5082032;28;20036;-75
2024/01/25 07:30:15;;;;;;;0.40;0.40;;;;;;;10.47;100.00;100807.63;5098850;28;20111;-75
2024/01/25 07:32:42;;;;;;;0.40;0.40;;;;;;;10.49;100.00;100804.78;5082269;28;20078;-74
2024/01/25 07:35:11;;;;;;;0.50;0.50;;;;;;;10.44;100.00;100793.72;5115873;28;20118;-75
2024/01/25 07:37:39;;;;;;;0.43;0.43;;;;;;;10.48;100.00;100803.94;5115916;28;20035;-75
2024/01/25 07:40:06;;;;;;;0.40;0.40;;;;;;;10.47;100.00;100807.63;5098613;28;20020;-75
2024/01/25 07:42:32;;;;;;;0.50;0.50;;;;;;;10.48;100.00;100803.13;5099747;28;20020;-75
2024/01/25 07:44:58;;;;;;;0.40;0.40;;;;;;;10.47;100.00;100810.31;5081864;28;20387;-76
2024/01/25 07:47:23;;;;;;;0.30;0.30;;;;;;;10.46;100.00;100808.66;5082061;28;20077;-75
2024/01/25 07:49:51;;;;;;;0.40;0.40;;;;;;;10.45;100.00;100803.44;5082112;28;20028;-75
2024/01/25 07:52:17;;;;;;;0.40;0.40;;;;;;;10.46;100.00;100800.59;5082826;28;20080;-74
2024/01/25 07:54:44;;;;;;;0.40;0.40;;;;;;;10.48;100.00;100803.94;5081893;28;20386;-75
2024/01/25 07:57:10;;;;;;;0.40;0.40;;;;;;;10.49;100.00;100805.63;5098503;28;20031;-75
2024/01/25 07:59:36;;;;;;;0.40;0.40;;;;;;;10.50;100.00;100801.06;5081702;28;20031;-75
2024/01/25 08:02:02;;;;;;;0.40;0.40;;;;;;;10.50;100.00;100801.91;5098131;28;20059;-75
2024/01/25 08:04:27;;;;;;;0.40;0.40;;;;;;;10.50;100.00;100809.13;5115658;28;20039;-75
2024/01/25 08:06:53;;;;;;;0.40;0.40;;;;;;;10.49;100.00;100815.53;5081771;28;20442;-75
2024/01/25 08:09:19;;;;;;;0.50;0.50;;;;;;;10.50;100.00;100818.03;5081314;28;20036;-75
2024/01/25 08:11:44;;;;;;;0.35;0.35;;;;;;;10.50;100.00;100801.91;5081577;28;20028;-75
2024/01/25 08:14:11;;;;;;;0.40;0.40;;;;;;;10.51;100.00;100798.22;5115352;28;20417;-75
2024/01/25 08:16:37;;;;;;;0.50;0.50;;;;;;;10.52;100.00;100796.38;5097998;28;20027;-75
2024/01/25 08:19:03;;;;;;;0.40;0.40;;;;;;;10.53;100.00;100788.13;5098254;28;20027;-75
2024/01/25 08:21:29;;;;;;;0.40;0.40;;;;;;;10.53;100.00;100779.22;5097946;28;20085;-75
2024/01/25 08:23:55;;;;;;;0.40;0.40;;;;;;;10.55;100.00;100796.84;5081424;28;20036;-75
2024/01/25 08:26:20;;;;;;;0.40;0.40;;;;;;;10.54;100.00;100795.19;5081416;28;20031;-75
2024/01/25 08:28:46;;;;;;;0.40;0.40;;;;;;;10.56;100.00;100790.47;5081430;28;20559;-75
2024/01/25 08:31:12;;;;;;;0.47;0.47;;;;;;;10.56;100.00;100789.63;5113946;28;20055;-75
2024/01/25 08:33:45;;;;;;;0.40;0.40;;;;;;;10.57;100.00;100792.13;5081188;28;20063;-75
2024/01/25 08:36:11;;;;;;;0.40;0.40;;;;;;;10.59;100.00;100799.22;5099204;28;20049;-75
2024/01/25 08:38:37;;;;;;;0.30;0.30;;;;;;;10.63;100.00;100787.91;5097825;28;20066;-75
2024/01/25 08:41:02;;;;;;;0.40;0.40;;;;;;;10.63;100.00;100792.44;5080426;28;20438;-75
2024/01/25 08:43:28;;;;;;;0.55;0.55;;;;;;;10.65;100.00;100790.44;5081022;28;20031;-75
2024/01/25 08:45:54;;;;;;;0.40;0.40;;;;;;;10.64;100.00;100788.72;5080951;28;20360;-75
2024/01/25 08:48:20;;;;;;;0.45;0.45;;;;;;;10.64;100.00;100786.03;5080839;28;20119;-75
2024/01/25 08:50:46;;;;;;;0.40;0.40;;;;;;;10.63;100.00;100787.91;5080278;28;20048;-75
2024/01/25 08:53:12;;;;;;;0.40;0.40;;;;;;;10.63;100.00;100787.91;5078784;28;20027;-75
2024/01/25 08:55:37;;;;;;;0.50;0.50;;;;;;;10.63;100.00;100790.59;5080167;28;20043;-75
2024/01/25 08:58:03;;;;;;;0.43;0.43;;;;;;;10.67;100.00;100785.72;5080565;28;20035;-75
2024/01/25 09:00:31;;;;;;;0.40;0.40;;;;;;;10.65;100.00;100796.63;5080331;28;20028;-75
2024/01/25 09:02:57;;;;;;;0.40;0.40;;;;;;;10.66;100.00;100800.16;5080281;28;20078;-75
2024/01/25 09:05:22;;;;;;;0.50;0.50;;;;;;;10.67;100.00;100789.25;5080502;28;20467;-75
2024/01/25 09:07:50;;;;;;;0.50;0.50;;;;;;;10.67;100.00;100796.47;5080443;28;20391;-75
2024/01/25 09:10:21;;;;;;;0.35;0.35;;;;;;;10.68;100.00;100792.75;5080367;28;20035;-77
2024/01/25 09:12:47;;;;;;;0.40;0.40;;;;;;;10.73;100.00;100783.16;5097143;28;20040;-77
2024/01/25 09:15:13;;;;;;;0.35;0.35;;;;;;;10.75;100.00;100780.28;5080461;28;20027;-77
2024/01/25 09:17:39;;;;;;;0.40;0.40;;;;;;;10.77;100.00;100787.19;5080606;28;20111;-76
2024/01/25 09:20:06;;;;;;;0.40;0.40;;;;;;;10.80;100.00;100791.38;5080759;28;20036;-76
2024/01/25 09:22:32;;;;;;;0.40;0.40;;;;;;;10.82;100.00;100789.31;5080390;28;20023;-77
2024/01/25 09:24:58;;;;;;;0.40;0.40;;;;;;;10.83;100.00;100788.31;5080179;28;20481;-76
2024/01/25 09:27:23;;;;;;;0.40;0.40;;;;;;;10.85;100.00;100794.38;5079949;28;20432;-77
2024/01/25 09:29:49;;;;;;;0.40;0.40;;;;;;;10.87;100.00;100786.94;5096850;28;20047;-76
2024/01/25 09:32:15;;;;;;;0.47;0.47;;;;;;;10.86;100.00;100787.13;5080111;28;20038;-77
2024/01/25 09:34:40;;;;;;;0.30;0.30;;;;;;;10.85;100.00;100778.22;5080060;28;20471;-76
2024/01/25 09:37:06;;;;;;;0.40;0.40;;;;;;;10.86;100.00;100777.19;5080005;28;20162;-77
2024/01/25 09:39:32;;;;;;;0.30;0.30;;;;;;;10.88;100.00;100775.19;5079832;28;20506;-76
2024/01/25 09:42:01;;;;;;;0.40;0.40;;;;;;;10.92;100.00;100781.84;5113221;28;20028;-77
2024/01/25 09:44:29;;;;;;;0.40;0.40;;;;;;;10.93;100.00;100780.88;5095749;28;20039;-77
2024/01/25 09:46:55;;;;;;;0.40;0.40;;;;;;;10.97;100.00;100784.03;5095564;28;20027;-77
2024/01/25 09:49:21;;;;;;;0.47;0.47;;;;;;;10.99;100.00;100779.31;5079551;28;20052;-77
2024/01/25 09:51:48;;;;;;;0.40;0.40;;;;;;;11.05;100.00;100769.69;5113432;28;20104;-77
2024/01/25 09:54:14;;;;;;;0.40;0.40;;;;;;;11.08;100.00;100789.00;5113080;28;20023;-77
2024/01/25 09:56:41;;;;;;;0.32;0.32;;;;;;;11.10;100.00;100786.97;5063211;28;20107;-77
2024/01/25 09:59:08;;;;;;;0.40;0.40;;;;;;;11.09;100.00;100787.16;5079407;28;20150;-77
2024/01/25 10:01:34;;;;;;;0.40;0.40;;;;;;;11.09;100.00;100789.84;5079405;28;20039;-77
2024/01/25 10:04:00;;;;;;;0.40;0.40;;;;;;;11.10;100.00;100780.75;5096629;28;20044;-77
2024/01/25 10:06:26;;;;;;;0.40;0.40;;;;;;;11.11;100.00;100787.78;5081462;28;20155;-77
2024/01/25 10:08:53;;;;;;;0.30;0.30;;;;;;;11.14;100.00;100787.44;5094571;28;20027;-78
2024/01/25 10:11:19;;;;;;;0.50;0.50;;;;;;;11.19;100.00;100787.75;5099665;28;20097;-78
2024/01/25 10:13:50;;;;;;;0.40;0.40;;;;;;;11.21;100.00;100780.34;5079555;28;20032;-77
2024/01/25 10:16:24;;;;;;;0.40;0.40;;;;;;;11.21;100.00;100778.47;5079967;28;20032;-78
2024/01/25 10:18:51;;;;;;;0.50;0.50;;;;;;;11.20;100.00;100784.06;5097289;28;20053;-78
2024/01/25 10:21:17;;;;;;;0.40;0.40;;;;;;;11.22;100.00;100784.72;5112632;28;20061;-77
2024/01/25 10:23:48;;;;;;;0.40;0.40;;;;;;;11.20;100.00;100784.88;5079320;28;20047;-78
2024/01/25 10:26:14;;;;;;;0.40;0.40;;;;;;;11.23;100.00;100781.00;5112897;28;20032;-78
2024/01/25 10:28:40;;;;;;;0.43;0.43;;;;;;;11.22;100.00;100779.34;5095949;28;20031;-78
2024/01/25 10:31:07;;;;;;;0.40;0.40;;;;;;;11.21;100.00;100783.03;5079225;28;20043;-78
2024/01/25 10:33:33;;;;;;;0.50;0.50;;;;;;;11.19;100.00;100776.97;5112876;28;20080;-78
2024/01/25 10:36:02;;;;;;;0.40;0.40;;;;;;;11.20;100.00;100781.34;5095670;28;20067;-78
2024/01/25 10:38:35;;;;;;;0.40;0.40;;;;;;;11.19;100.00;100782.34;5112457;28;20027;-78
2024/01/25 10:41:02;;;;;;;0.47;0.47;;;;;;;11.21;100.00;100775.78;5095874;28;20111;-78
2024/01/25 10:43:32;;;;;;;0.40;0.40;;;;;;;11.27;100.00;100774.22;5079087;28;20081;-77
2024/01/25 10:45:59;;;;;;;0.40;0.40;;;;;;;11.31;100.00;100772.03;5078957;28;20104;-78
2024/01/25 10:48:29;;;;;;;0.40;0.40;;;;;;;11.35;100.00;100776.00;5079047;28;20035;-77
2024/01/25 10:50:55;;;;;;;0.40;0.40;;;;;;;11.41;100.00;100768.06;5112763;28;20085;-78
2024/01/25 10:53:23;;;;;;;0.43;0.43;;;;;;;11.38;100.00;100779.19;5112820;28;20035;-78
2024/01/25 10:55:49;;;;;;;0.60;0.60;;;;;;;11.40;100.00;100766.38;5099941;28;20024;-77
2024/01/25 10:58:15;;;;;;;0.43;0.43;;;;;;;11.41;100.00;100768.06;5083084;28;20097;-78
2024/01/25 11:00:41;;;;;;;0.50;0.50;;;;;;;11.61;100.00;100770.25;5082698;28;20105;-78
2024/01/25 11:03:07;;;;;;;0.50;0.50;;;;;;;11.68;100.00;100771.19;5099876;28;20047;-78
2024/01/25 11:05:33;;;;;;;0.40;0.40;;;;;;;11.70;100.00;100774.56;5082933;28;20463;-78
2024/01/25 11:08:00;;;;;;;0.40;0.40;;;;;;;11.64;100.00;100770.75;5099703;28;20122;-78
2024/01/25 11:10:27;;;;;;;0.40;0.40;;;;;;;11.61;100.00;100772.94;5099605;28;20035;-78
2024/01/25 11:12:59;;;;;;;0.40;0.40;;;;;;;11.59;100.00;100769.59;5099701;28;20035;-78
2024/01/25 11:15:33;;;;;;;0.50;0.50;;;;;;;11.57;100.00;100760.88;5099034;28;20031;-78